sensor_id;sensor_type;location;lat;lon;timestamp;pressure;altitude;pressure_sealevel;temperature;humidity
65716;BME280;63484;52.054;8.518;2023-04-02T00:03:15;100114.91;;;5.31;94.28
65716;BME280;63484;52.054;8.518;2023-04-02T00:08:28;100153.44;;;5.24;94.79
65716;BME280;63484;52.054;8.518;2023-04-02T00:13:44;100149.28;;;5.20;95.52
65716;BME280;63484;52.054;8.518;2023-04-02T00:18:51;100163.59;;;5.12;97.56
65716;BME280;63484;52.054;8.518;2023-04-02T00:23:55;100173.09;;;5.13;97.29
65716;BME280;63484;52.054;8.518;2023-04-02T00:29:02;100182.00;;;5.09;96.79
65716;BME280;63484;52.054;8.518;2023-04-02T00:34:08;100191.13;;;4.99;96.34
65716;BME280;63484;52.054;8.518;2023-04-02T00:39:18;100199.41;;;4.88;96.09
65716;BME280;63484;52.054;8.518;2023-04-02T00:44:23;100207.22;;;4.88;95.61
65716;BME280;63484;52.054;8.518;2023-04-02T00:49:28;100213.38;;;4.87;95.93
65716;BME280;63484;52.054;8.518;2023-04-02T00:54:38;100220.03;;;4.74;96.66
65716;BME280;63484;52.054;8.518;2023-04-02T00:59:53;100232.41;;;4.69;97.17
65716;BME280;63484;52.054;8.518;2023-04-02T01:04:57;100234.63;;;4.58;97.28
65716;BME280;63484;52.054;8.518;2023-04-02T01:10:12;100228.97;;;4.49;98.10
65716;BME280;63484;52.054;8.518;2023-04-02T01:15:20;100239.31;;;4.50;97.42
65716;BME280;63484;52.054;8.518;2023-04-02T01:20:42;100248.56;;;4.37;97.90
65716;BME280;63484;52.054;8.518;2023-04-02T01:25:55;100274.84;;;4.31;97.56
65716;BME280;63484;52.054;8.518;2023-04-02T01:31:01;100288.47;;;4.36;97.96
65716;BME280;63484;52.054;8.518;2023-04-02T01:36:09;100282.00;;;4.26;97.57
65716;BME280;63484;52.054;8.518;2023-04-02T01:41:17;100304.28;;;4.11;96.53
65716;BME280;63484;52.054;8.518;2023-04-02T01:46:28;100322.59;;;4.08;95.79
65716;BME280;63484;52.054;8.518;2023-04-02T01:51:32;100324.94;;;3.93;96.11
65716;BME280;63484;52.054;8.518;2023-04-02T01:56:37;100331.94;;;3.91;95.88
65716;BME280;63484;52.054;8.518;2023-04-02T02:01:46;100347.47;;;3.92;94.87
65716;BME280;63484;52.054;8.518;2023-04-02T02:06:51;100364.06;;;3.90;94.53
65716;BME280;63484;52.054;8.518;2023-04-02T02:11:55;100366.66;;;3.90;93.70
65716;BME280;63484;52.054;8.518;2023-04-02T02:17:00;100379.97;;;3.82;94.34
65716;BME280;63484;52.054;8.518;2023-04-02T02:22:08;100379.00;;;3.85;94.07
65716;BME280;63484;52.054;8.518;2023-04-02T02:27:42;100397.38;;;3.80;93.68
65716;BME280;63484;52.054;8.518;2023-04-02T02:32:52;100397.38;;;3.80;93.67
65716;BME280;63484;52.054;8.518;2023-04-02T02:38:01;100416.44;;;3.79;92.34
65716;BME280;63484;52.054;8.518;2023-04-02T02:43:09;100422.38;;;3.83;93.12
65716;BME280;63484;52.054;8.518;2023-04-02T02:48:17;100432.91;;;3.80;93.39
65716;BME280;63484;52.054;8.518;2023-04-02T02:53:23;100442.34;;;3.82;92.15
65716;BME280;63484;52.054;8.518;2023-04-02T02:58:29;100445.16;;;3.76;92.13
65716;BME280;63484;52.054;8.518;2023-04-02T03:03:59;100467.56;;;3.80;91.34
65716;BME280;63484;52.054;8.518;2023-04-02T03:09:09;100475.78;;;3.68;90.43
65716;BME280;63484;52.054;8.518;2023-04-02T03:14:19;100483.53;;;3.70;88.62
65716;BME280;63484;52.054;8.518;2023-04-02T03:19:28;100492.66;;;3.57;89.43
65716;BME280;63484;52.054;8.518;2023-04-02T03:24:35;100505.34;;;3.66;89.35
65716;BME280;63484;52.054;8.518;2023-04-02T03:29:42;100510.06;;;3.55;89.11
65716;BME280;63484;52.054;8.518;2023-04-02T03:34:53;100528.25;;;3.55;88.88
65716;BME280;63484;52.054;8.518;2023-04-02T03:40:01;100535.38;;;3.50;88.32
65716;BME280;63484;52.054;8.518;2023-04-02T03:45:13;100555.34;;;3.48;88.26
65716;BME280;63484;52.054;8.518;2023-04-02T03:50:21;100564.06;;;3.47;88.29
65716;BME280;63484;52.054;8.518;2023-04-02T03:55:29;100566.59;;;3.48;87.98
65716;BME280;63484;52.054;8.518;2023-04-02T04:00:38;100577.09;;;3.45;89.45
65716;BME280;63484;52.054;8.518;2023-04-02T04:05:49;100593.50;;;3.46;87.59
65716;BME280;63484;52.054;8.518;2023-04-02T04:10:56;100595.41;;;3.41;88.70
65716;BME280;63484;52.054;8.518;2023-04-02T04:16:04;100602.50;;;3.36;88.60
65716;BME280;63484;52.054;8.518;2023-04-02T04:21:14;100610.66;;;3.25;88.09
65716;BME280;63484;52.054;8.518;2023-04-02T04:26:40;100629.75;;;3.23;87.28
65716;BME280;63484;52.054;8.518;2023-04-02T04:31:50;100642.94;;;3.17;88.26
65716;BME280;63484;52.054;8.518;2023-04-02T04:37:00;100647.38;;;3.13;87.83
65716;BME280;63484;52.054;8.518;2023-04-02T04:42:16;100655.94;;;3.17;88.32
65716;BME280;63484;52.054;8.518;2023-04-02T04:47:25;100672.44;;;3.16;86.71
65716;BME280;63484;52.054;8.518;2023-04-02T04:52:35;100678.38;;;3.19;86.45
65716;BME280;63484;52.054;8.518;2023-04-02T04:57:40;100684.50;;;3.17;86.58
65716;BME280;63484;52.054;8.518;2023-04-02T05:02:50;100707.81;;;3.18;85.82
65716;BME280;63484;52.054;8.518;2023-04-02T05:08:02;100717.63;;;3.09;85.35
65716;BME280;63484;52.054;8.518;2023-04-02T05:13:10;100731.25;;;3.17;85.15
65716;BME280;63484;52.054;8.518;2023-04-02T05:18:22;100744.50;;;3.08;85.60
65716;BME280;63484;52.054;8.518;2023-04-02T05:23:28;100746.81;;;3.17;84.97
65716;BME280;63484;52.054;8.518;2023-04-02T05:28:37;100752.94;;;3.16;85.26
65716;BME280;63484;52.054;8.518;2023-04-02T05:33:44;100765.72;;;3.22;84.96
65716;BME280;63484;52.054;8.518;2023-04-02T05:38:49;100763.03;;;3.25;84.49
65716;BME280;63484;52.054;8.518;2023-04-02T05:44:04;100769.91;;;3.27;84.07
65716;BME280;63484;52.054;8.518;2023-04-02T05:49:13;100791.34;;;3.34;83.33
65716;BME280;63484;52.054;8.518;2023-04-02T05:54:24;100797.91;;;3.47;82.72
65716;BME280;63484;52.054;8.518;2023-04-02T05:59:35;100808.09;;;3.53;82.17
65716;BME280;63484;52.054;8.518;2023-04-02T06:04:43;100819.50;;;3.47;82.59
65716;BME280;63484;52.054;8.518;2023-04-02T06:09:51;100833.31;;;3.49;82.34
65716;BME280;63484;52.054;8.518;2023-04-02T06:14:56;100853.94;;;3.55;81.08
65716;BME280;63484;52.054;8.518;2023-04-02T06:20:02;100866.91;;;3.55;82.44
65716;BME280;63484;52.054;8.518;2023-04-02T06:25:13;100879.13;;;3.52;80.89
65716;BME280;63484;52.054;8.518;2023-04-02T06:30:22;100892.19;;;3.50;81.08
65716;BME280;63484;52.054;8.518;2023-04-02T06:35:27;100906.00;;;3.52;80.16
65716;BME280;63484;52.054;8.518;2023-04-02T06:40:39;100919.81;;;3.54;79.08
65716;BME280;63484;52.054;8.518;2023-04-02T06:45:48;100917.31;;;3.80;78.44
65716;BME280;63484;52.054;8.518;2023-04-02T06:51:05;100931.72;;;3.92;77.00
65716;BME280;63484;52.054;8.518;2023-04-02T06:56:18;100945.34;;;4.00;76.23
65716;BME280;63484;52.054;8.518;2023-04-02T07:01:27;100952.91;;;4.07;76.62
65716;BME280;63484;52.054;8.518;2023-04-02T07:06:30;100965.38;;;3.96;76.71
65716;BME280;63484;52.054;8.518;2023-04-02T07:11:35;100977.25;;;4.05;76.46
65716;BME280;63484;52.054;8.518;2023-04-02T07:16:40;100985.50;;;3.90;75.22
65716;BME280;63484;52.054;8.518;2023-04-02T07:21:45;101008.19;;;3.85;75.55
65716;BME280;63484;52.054;8.518;2023-04-02T07:26:48;101015.75;;;3.92;74.88
65716;BME280;63484;52.054;8.518;2023-04-02T07:31:53;101027.09;;;3.90;74.39
65716;BME280;63484;52.054;8.518;2023-04-02T07:36:54;101039.31;;;4.17;74.29
65716;BME280;63484;52.054;8.518;2023-04-02T07:41:59;101039.69;;;4.05;73.25
65716;BME280;63484;52.054;8.518;2023-04-02T07:47:01;101054.31;;;4.09;72.08
65716;BME280;63484;52.054;8.518;2023-04-02T07:52:03;101062.41;;;4.29;70.71
65716;BME280;63484;52.054;8.518;2023-04-02T07:57:10;101087.13;;;4.44;68.90
65716;BME280;63484;52.054;8.518;2023-04-02T08:02:17;101084.56;;;4.71;68.96
65716;BME280;63484;52.054;8.518;2023-04-02T08:07:20;101093.31;;;4.69;67.68
65716;BME280;63484;52.054;8.518;2023-04-02T08:12:23;101113.03;;;4.77;67.74
65716;BME280;63484;52.054;8.518;2023-04-02T08:17:24;101118.53;;;4.68;68.13
65716;BME280;63484;52.054;8.518;2023-04-02T08:22:30;101129.66;;;4.43;67.33
65716;BME280;63484;52.054;8.518;2023-04-02T08:27:33;101117.41;;;4.46;67.21
65716;BME280;63484;52.054;8.518;2023-04-02T08:32:35;101130.22;;;4.54;67.45
65716;BME280;63484;52.054;8.518;2023-04-02T08:37:36;101150.69;;;4.66;68.73
65716;BME280;63484;52.054;8.518;2023-04-02T08:42:43;101164.34;;;4.74;67.17
65716;BME280;63484;52.054;8.518;2023-04-02T08:47:48;101175.53;;;4.77;66.59
65716;BME280;63484;52.054;8.518;2023-04-02T08:52:51;101175.97;;;4.91;66.49
65716;BME280;63484;52.054;8.518;2023-04-02T08:58:00;101195.50;;;5.07;66.34
65716;BME280;63484;52.054;8.518;2023-04-02T09:03:07;101192.88;;;5.07;64.59
65716;BME280;63484;52.054;8.518;2023-04-02T09:08:16;101207.88;;;5.28;63.33
65716;BME280;63484;52.054;8.518;2023-04-02T09:13:22;101207.59;;;5.37;64.04
65716;BME280;63484;52.054;8.518;2023-04-02T09:18:27;101228.06;;;5.49;63.50
65716;BME280;63484;52.054;8.518;2023-04-02T09:23:30;101220.25;;;5.49;62.08
65716;BME280;63484;52.054;8.518;2023-04-02T09:28:33;101224.56;;;6.04;61.44
65716;BME280;63484;52.054;8.518;2023-04-02T09:33:43;101219.69;;;6.20;59.21
65716;BME280;63484;52.054;8.518;2023-04-02T09:39:00;101240.44;;;6.49;59.67
65716;BME280;63484;52.054;8.518;2023-04-02T09:44:18;101229.72;;;6.32;60.56
65716;BME280;63484;52.054;8.518;2023-04-02T09:49:23;101251.69;;;6.75;60.41
65716;BME280;63484;52.054;8.518;2023-04-02T09:54:26;101257.25;;;6.89;58.97
65716;BME280;63484;52.054;8.518;2023-04-02T09:59:31;101268.78;;;7.07;58.58
65716;BME280;63484;52.054;8.518;2023-04-02T10:04:38;101273.31;;;6.79;59.02
65716;BME280;63484;52.054;8.518;2023-04-02T10:09:43;101281.75;;;6.87;59.39
65716;BME280;63484;52.054;8.518;2023-04-02T10:14:47;101277.97;;;6.94;59.78
65716;BME280;63484;52.054;8.518;2023-04-02T10:19:51;101289.13;;;6.99;59.11
65716;BME280;63484;52.054;8.518;2023-04-02T10:24:54;101295.44;;;6.93;58.60
65716;BME280;63484;52.054;8.518;2023-04-02T10:30:10;101307.34;;;6.53;59.22
65716;BME280;63484;52.054;8.518;2023-04-02T10:35:23;101319.03;;;6.67;59.57
65716;BME280;63484;52.054;8.518;2023-04-02T10:40:28;101337.41;;;6.64;60.10
65716;BME280;63484;52.054;8.518;2023-04-02T10:45:40;101339.13;;;6.65;60.15
65716;BME280;63484;52.054;8.518;2023-04-02T10:50:48;101333.91;;;6.39;60.84
65716;BME280;63484;52.054;8.518;2023-04-02T10:55:56;101349.34;;;6.71;59.86
65716;BME280;63484;52.054;8.518;2023-04-02T11:01:03;101357.97;;;6.99;59.70
65716;BME280;63484;52.054;8.518;2023-04-02T11:06:14;101369.38;;;6.97;59.25
65716;BME280;63484;52.054;8.518;2023-04-02T11:11:20;101382.66;;;6.91;59.43
65716;BME280;63484;52.054;8.518;2023-04-02T11:16:25;101379.22;;;6.89;58.42
65716;BME280;63484;52.054;8.518;2023-04-02T11:21:37;101394.72;;;6.95;57.94
65716;BME280;63484;52.054;8.518;2023-04-02T11:26:40;101391.75;;;6.79;58.22
65716;BME280;63484;52.054;8.518;2023-04-02T11:31:46;101393.25;;;6.86;58.59
65716;BME280;63484;52.054;8.518;2023-04-02T11:37:02;101402.41;;;7.24;57.99
65716;BME280;63484;52.054;8.518;2023-04-02T11:42:22;101403.16;;;7.28;57.58
65716;BME280;63484;52.054;8.518;2023-04-02T11:47:27;101408.06;;;7.37;57.83
65716;BME280;63484;52.054;8.518;2023-04-02T11:52:34;101417.91;;;7.53;57.01
65716;BME280;63484;52.054;8.518;2023-04-02T11:57:56;101411.19;;;7.46;56.41
65716;BME280;63484;52.054;8.518;2023-04-02T12:08:42;101415.34;;;7.52;56.35
65716;BME280;63484;52.054;8.518;2023-04-02T12:13:52;101430.69;;;8.31;53.89
65716;BME280;63484;52.054;8.518;2023-04-02T12:18:53;101440.34;;;8.29;52.96
65716;BME280;63484;52.054;8.518;2023-04-02T12:23:59;101449.31;;;7.99;55.04
65716;BME280;63484;52.054;8.518;2023-04-02T12:29:22;101449.06;;;8.07;54.35
65716;BME280;63484;52.054;8.518;2023-04-02T12:34:27;101452.41;;;8.33;53.25
65716;BME280;63484;52.054;8.518;2023-04-02T12:39:33;101448.34;;;8.26;54.78
65716;BME280;63484;52.054;8.518;2023-04-02T12:44:36;101461.19;;;8.76;53.33
65716;BME280;63484;52.054;8.518;2023-04-02T12:49:39;101478.50;;;8.13;54.51
65716;BME280;63484;52.054;8.518;2023-04-02T12:54:47;101475.41;;;7.79;54.82
65716;BME280;63484;52.054;8.518;2023-04-02T12:59:52;101469.72;;;7.67;56.34
65716;BME280;63484;52.054;8.518;2023-04-02T13:04:56;101486.47;;;7.38;55.79
65716;BME280;63484;52.054;8.518;2023-04-02T13:10:03;101486.75;;;7.55;56.64
65716;BME280;63484;52.054;8.518;2023-04-02T13:15:18;101484.59;;;7.66;55.83
65716;BME280;63484;52.054;8.518;2023-04-02T13:20:28;101503.88;;;7.39;55.55
65716;BME280;63484;52.054;8.518;2023-04-02T13:25:34;101488.66;;;7.50;55.21
65716;BME280;63484;52.054;8.518;2023-04-02T13:30:37;101491.75;;;7.61;54.99
65716;BME280;63484;52.054;8.518;2023-04-02T13:35:39;101503.16;;;7.59;54.68
65716;BME280;63484;52.054;8.518;2023-04-02T13:40:44;101479.78;;;7.79;54.69
65716;BME280;63484;52.054;8.518;2023-04-02T13:45:49;101490.13;;;7.82;53.89
65716;BME280;63484;52.054;8.518;2023-04-02T13:50:51;101490.41;;;7.74;53.49
65716;BME280;63484;52.054;8.518;2023-04-02T13:55:57;101497.63;;;7.92;53.24
65716;BME280;63484;52.054;8.518;2023-04-02T14:00:59;101492.13;;;7.98;52.75
65716;BME280;63484;52.054;8.518;2023-04-02T14:06:03;101504.38;;;8.21;54.08
65716;BME280;63484;52.054;8.518;2023-04-02T14:11:21;101493.41;;;8.11;53.45
65716;BME280;63484;52.054;8.518;2023-04-02T14:16:48;101500.47;;;8.56;53.32
65716;BME280;63484;52.054;8.518;2023-04-02T14:22:06;101503.41;;;8.47;55.52
65716;BME280;63484;52.054;8.518;2023-04-02T14:27:23;101507.47;;;8.32;53.16
65716;BME280;63484;52.054;8.518;2023-04-02T14:32:35;101519.97;;;8.01;51.36
65716;BME280;63484;52.054;8.518;2023-04-02T14:37:49;101513.53;;;8.09;51.87
65716;BME280;63484;52.054;8.518;2023-04-02T14:42:57;101524.88;;;8.34;50.49
65716;BME280;63484;52.054;8.518;2023-04-02T14:48:04;101530.09;;;8.34;51.13
65716;BME280;63484;52.054;8.518;2023-04-02T14:53:16;101525.00;;;8.53;51.11
65716;BME280;63484;52.054;8.518;2023-04-02T14:58:25;101530.19;;;8.55;51.34
65716;BME280;63484;52.054;8.518;2023-04-02T15:03:32;101519.81;;;8.52;52.67
65716;BME280;63484;52.054;8.518;2023-04-02T15:08:38;101533.59;;;8.57;51.73
65716;BME280;63484;52.054;8.518;2023-04-02T15:13:44;101533.75;;;8.97;51.59
65716;BME280;63484;52.054;8.518;2023-04-02T15:18:50;101541.31;;;9.04;51.56
65716;BME280;63484;52.054;8.518;2023-04-02T15:23:57;101534.34;;;9.03;52.31
65716;BME280;63484;52.054;8.518;2023-04-02T15:29:09;101543.69;;;8.89;51.58
65716;BME280;63484;52.054;8.518;2023-04-02T15:34:20;101545.47;;;8.88;50.94
65716;BME280;63484;52.054;8.518;2023-04-02T15:39:50;101550.50;;;9.14;50.87
65716;BME280;63484;52.054;8.518;2023-04-02T15:45:16;101562.94;;;9.31;49.01
65716;BME280;63484;52.054;8.518;2023-04-02T15:50:36;101572.03;;;9.44;48.88
65716;BME280;63484;52.054;8.518;2023-04-02T15:55:45;101578.41;;;9.17;48.76
65716;BME280;63484;52.054;8.518;2023-04-02T16:00:55;101573.63;;;9.05;49.54
65716;BME280;63484;52.054;8.518;2023-04-02T16:06:12;101578.09;;;9.03;50.89
65716;BME280;63484;52.054;8.518;2023-04-02T16:11:17;101573.63;;;9.05;51.36
65716;BME280;63484;52.054;8.518;2023-04-02T16:16:21;101580.09;;;9.18;50.55
65716;BME280;63484;52.054;8.518;2023-04-02T16:21:30;101581.63;;;9.23;50.51
65716;BME280;63484;52.054;8.518;2023-04-02T16:26:44;101590.47;;;9.21;50.16
65716;BME280;63484;52.054;8.518;2023-04-02T16:31:57;101602.69;;;9.22;49.43
65716;BME280;63484;52.054;8.518;2023-04-02T16:37:09;101611.28;;;9.04;50.14
65716;BME280;63484;52.054;8.518;2023-04-02T16:42:21;101610.72;;;8.96;50.92
65716;BME280;63484;52.054;8.518;2023-04-02T16:47:45;101616.44;;;8.84;50.46
65716;BME280;63484;52.054;8.518;2023-04-02T16:52:55;101624.66;;;8.75;51.45
65716;BME280;63484;52.054;8.518;2023-04-02T16:58:07;101629.41;;;8.65;50.46
65716;BME280;63484;52.054;8.518;2023-04-02T17:03:36;101636.38;;;8.65;50.85
65716;BME280;63484;52.054;8.518;2023-04-02T17:08:42;101643.56;;;8.60;51.03
65716;BME280;63484;52.054;8.518;2023-04-02T17:13:47;101637.31;;;8.64;51.34
65716;BME280;63484;52.054;8.518;2023-04-02T17:18:55;101653.22;;;8.59;50.96
65716;BME280;63484;52.054;8.518;2023-04-02T17:24:05;101651.97;;;8.44;51.77
65716;BME280;63484;52.054;8.518;2023-04-02T17:29:17;101668.22;;;8.31;50.66
65716;BME280;63484;52.054;8.518;2023-04-02T17:34:21;101677.31;;;8.19;51.64
65716;BME280;63484;52.054;8.518;2023-04-02T17:39:31;101691.03;;;8.01;52.61
65716;BME280;63484;52.054;8.518;2023-04-02T17:45:01;101689.03;;;7.83;53.04
65716;BME280;63484;52.054;8.518;2023-04-02T17:50:26;101695.66;;;7.67;54.47
65716;BME280;63484;52.054;8.518;2023-04-02T17:55:38;101700.44;;;7.55;55.43
65716;BME280;63484;52.054;8.518;2023-04-02T18:00:51;101704.81;;;7.54;55.96
65716;BME280;63484;52.054;8.518;2023-04-02T18:05:57;101706.97;;;7.42;56.18
65716;BME280;63484;52.054;8.518;2023-04-02T18:11:07;101723.94;;;7.29;56.82
65716;BME280;63484;52.054;8.518;2023-04-02T18:16:20;101720.00;;;7.14;57.62
65716;BME280;63484;52.054;8.518;2023-04-02T18:21:30;101729.44;;;7.20;57.53
65716;BME280;63484;52.054;8.518;2023-04-02T18:26:41;101746.78;;;7.22;57.41
65716;BME280;63484;52.054;8.518;2023-04-02T18:31:49;101747.81;;;7.18;57.99
65716;BME280;63484;52.054;8.518;2023-04-02T18:37:07;101744.50;;;7.12;58.33
65716;BME280;63484;52.054;8.518;2023-04-02T18:42:22;101751.66;;;7.05;58.64
65716;BME280;63484;52.054;8.518;2023-04-02T18:47:34;101756.31;;;6.94;59.23
65716;BME280;63484;52.054;8.518;2023-04-02T18:52:40;101767.91;;;6.85;59.64
65716;BME280;63484;52.054;8.518;2023-04-02T18:57:44;101781.03;;;6.84;60.57
65716;BME280;63484;52.054;8.518;2023-04-02T19:02:49;101789.63;;;6.87;60.92
65716;BME280;63484;52.054;8.518;2023-04-02T19:08:00;101787.22;;;6.80;60.74
65716;BME280;63484;52.054;8.518;2023-04-02T19:13:07;101794.13;;;6.82;60.41
65716;BME280;63484;52.054;8.518;2023-04-02T19:18:19;101799.47;;;6.78;60.83
65716;BME280;63484;52.054;8.518;2023-04-02T19:23:41;101805.34;;;6.86;60.40
65716;BME280;63484;52.054;8.518;2023-04-02T19:28:57;101810.47;;;6.89;61.35
65716;BME280;63484;52.054;8.518;2023-04-02T19:34:13;101821.69;;;6.94;60.75
65716;BME280;63484;52.054;8.518;2023-04-02T19:45:21;101833.75;;;6.99;59.91
65716;BME280;63484;52.054;8.518;2023-04-02T19:50:24;101835.34;;;7.05;59.42
65716;BME280;63484;52.054;8.518;2023-04-02T19:55:26;101845.78;;;7.05;59.03
65716;BME280;63484;52.054;8.518;2023-04-02T20:00:29;101850.53;;;7.22;57.27
65716;BME280;63484;52.054;8.518;2023-04-02T20:05:32;101867.31;;;7.15;57.04
65716;BME280;63484;52.054;8.518;2023-04-02T20:10:34;101863.19;;;7.06;57.47
65716;BME280;63484;52.054;8.518;2023-04-02T20:15:39;101878.63;;;7.15;56.96
65716;BME280;63484;52.054;8.518;2023-04-02T20:20:44;101884.38;;;6.95;56.65
65716;BME280;63484;52.054;8.518;2023-04-02T20:25:46;101879.53;;;6.82;57.56
65716;BME280;63484;52.054;8.518;2023-04-02T20:30:53;101885.91;;;6.70;57.83
65716;BME280;63484;52.054;8.518;2023-04-02T20:36:06;101895.69;;;6.62;57.99
65716;BME280;63484;52.054;8.518;2023-04-02T20:41:11;101896.91;;;6.49;58.44
65716;BME280;63484;52.054;8.518;2023-04-02T20:46:16;101908.66;;;6.32;58.93
65716;BME280;63484;52.054;8.518;2023-04-02T20:51:20;101907.19;;;6.19;59.51
65716;BME280;63484;52.054;8.518;2023-04-02T20:56:22;101904.88;;;6.05;60.35
65716;BME280;63484;52.054;8.518;2023-04-02T21:01:27;101918.63;;;6.13;59.34
65716;BME280;63484;52.054;8.518;2023-04-02T21:06:33;101933.13;;;5.88;59.91
65716;BME280;63484;52.054;8.518;2023-04-02T21:11:35;101935.84;;;5.81;60.53
65716;BME280;63484;52.054;8.518;2023-04-02T21:16:41;101936.94;;;5.71;60.71
65716;BME280;63484;52.054;8.518;2023-04-02T21:21:42;101945.91;;;5.56;61.26
65716;BME280;63484;52.054;8.518;2023-04-02T21:26:47;101953.81;;;5.51;61.80
65716;BME280;63484;52.054;8.518;2023-04-02T21:31:50;101959.09;;;5.48;61.74
65716;BME280;63484;52.054;8.518;2023-04-02T21:36:51;101963.78;;;5.31;62.41
65716;BME280;63484;52.054;8.518;2023-04-02T21:41:53;101968.31;;;5.20;63.08
65716;BME280;63484;52.054;8.518;2023-04-02T21:46:59;101966.91;;;5.01;63.83
65716;BME280;63484;52.054;8.518;2023-04-02T21:52:03;101973.72;;;5.10;63.58
65716;BME280;63484;52.054;8.518;2023-04-02T21:57:05;101982.66;;;4.95;63.75
65716;BME280;63484;52.054;8.518;2023-04-02T22:02:08;101988.06;;;4.83;64.32
65716;BME280;63484;52.054;8.518;2023-04-02T22:07:10;101996.94;;;4.70;64.48
65716;BME280;63484;52.054;8.518;2023-04-02T22:12:11;101995.34;;;4.62;65.00
65716;BME280;63484;52.054;8.518;2023-04-02T22:17:14;102000.59;;;4.57;65.77
65716;BME280;63484;52.054;8.518;2023-04-02T22:22:16;102003.38;;;4.47;66.35
65716;BME280;63484;52.054;8.518;2023-04-02T22:27:20;102009.38;;;4.52;65.65
65716;BME280;63484;52.054;8.518;2023-04-02T22:32:23;102021.78;;;4.33;66.84
65716;BME280;63484;52.054;8.518;2023-04-02T22:37:24;102028.72;;;4.34;66.00
65716;BME280;63484;52.054;8.518;2023-04-02T22:42:26;102026.97;;;4.33;65.91
65716;BME280;63484;52.054;8.518;2023-04-02T22:47:29;102035.75;;;4.28;65.15
65716;BME280;63484;52.054;8.518;2023-04-02T22:52:31;102045.44;;;4.18;65.52
65716;BME280;63484;52.054;8.518;2023-04-02T22:57:33;102054.16;;;4.12;66.06
65716;BME280;63484;52.054;8.518;2023-04-02T23:02:36;102055.19;;;3.98;65.91
65716;BME280;63484;52.054;8.518;2023-04-02T23:07:41;102070.03;;;3.88;66.97
65716;BME280;63484;52.054;8.518;2023-04-02T23:12:42;102070.13;;;3.82;66.50
65716;BME280;63484;52.054;8.518;2023-04-02T23:17:45;102076.31;;;3.71;67.14
65716;BME280;63484;52.054;8.518;2023-04-02T23:22:47;102081.47;;;3.72;66.64
65716;BME280;63484;52.054;8.518;2023-04-02T23:27:49;102083.34;;;3.60;67.56
65716;BME280;63484;52.054;8.518;2023-04-02T23:32:52;102094.63;;;3.57;67.25
65716;BME280;63484;52.054;8.518;2023-04-02T23:37:55;102085.28;;;3.38;68.08
65716;BME280;63484;52.054;8.518;2023-04-02T23:42:57;102090.53;;;3.29;69.13
65716;BME280;63484;52.054;8.518;2023-04-02T23:48:02;102101.00;;;3.19;69.48
65716;BME280;63484;52.054;8.518;2023-04-02T23:53:04;102099.28;;;3.16;69.28
65716;BME280;63484;52.054;8.518;2023-04-02T23:58:06;102094.19;;;3.06;69.53
